Time;durP1;ratioP1;P1;durP2;ratioP2;P2;SDS_P1;SDS_P2;PMS_P1;PMS_P2;Temp;Humidity;BMP_temperature;BMP_pressure;BME280_temperature;BME280_humidity;BME280_pressure;Samples;Min_cycle;Max_cycle;Signal;HPM_P1;HPM_P2
2021/04/04 03:03:09;;;;;;;17.15;11.85;;;;;;;0.03;100.00;100063.58;1754982;77;21162;-70
2021/04/04 03:05:39;;;;;;;16.87;12.63;;;;;;;0.02;100.00;100061.48;1748775;80;21594;-70
2021/04/04 03:08:08;;;;;;;18.25;13.55;;;;;;;0.01;100.00;100064.99;1750324;81;21583;-72
2021/04/04 03:10:37;;;;;;;16.62;12.03;;;;;;;0.04;100.00;100064.76;1747390;81;32864;-70
2021/04/04 03:13:07;;;;;;;18.50;12.58;;;;;;;0.08;100.00;100068.70;1752821;81;21184;-70
2021/04/04 03:15:35;;;;;;;18.02;12.65;;;;;;;0.11;100.00;100066.35;1722529;82;21209;-70
2021/04/04 03:18:06;;;;;;;18.48;14.05;;;;;;;0.13;100.00;100079.41;1737796;80;22094;-70
2021/04/04 03:20:34;;;;;;;23.80;15.43;;;;;;;0.14;100.00;100087.91;1741921;81;21587;-69
2021/04/04 03:23:04;;;;;;;26.37;16.77;;;;;;;0.13;100.00;100084.53;1750556;81;21525;-69
2021/04/04 03:25:33;;;;;;;29.00;16.42;;;;;;;0.14;100.00;100086.15;1743941;80;21007;-69
2021/04/04 03:28:04;;;;;;;26.82;18.82;;;;;;;0.16;100.00;100093.27;1756833;80;21448;-69
2021/04/04 03:30:42;;;;;;;26.65;18.15;;;;;;;0.19;100.00;100100.72;1742405;81;22807;-69
2021/04/04 03:33:06;;;;;;;27.80;18.65;;;;;;;0.22;100.00;100091.48;1755224;80;21677;-69
2021/04/04 03:35:35;;;;;;;30.77;19.57;;;;;;;0.26;100.00;100101.03;1752075;80;21142;-69
2021/04/04 03:38:05;;;;;;;25.82;18.35;;;;;;;0.32;100.00;100103.12;1734601;80;21211;-69
2021/04/04 03:40:34;;;;;;;23.65;16.40;;;;;;;0.40;100.00;100099.95;1718678;82;21126;-70
2021/04/04 03:43:08;;;;;;;19.77;15.35;;;;;;;0.47;100.00;100097.25;1728394;82;21204;-71
2021/04/04 03:45:36;;;;;;;21.17;14.85;;;;;;;0.57;100.00;100099.44;1716126;82;21614;-69
2021/04/04 03:48:07;;;;;;;18.27;13.25;;;;;;;0.68;100.00;100101.96;1705049;81;21251;-70
2021/04/04 03:50:36;;;;;;;16.02;11.53;;;;;;;0.82;100.00;100102.11;1710516;82;21167;-70
2021/04/04 03:53:05;;;;;;;18.62;12.90;;;;;;;0.96;100.00;100101.00;1737791;81;21231;-71
2021/04/04 03:55:34;;;;;;;15.80;11.73;;;;;;;1.08;100.00;100105.13;1692356;83;22317;-71
2021/04/04 03:58:05;;;;;;;15.68;11.18;;;;;;;1.20;100.00;100102.03;1697541;82;21173;-71
2021/04/04 04:00:34;;;;;;;19.17;14.30;;;;;;;1.31;100.00;100106.28;1709522;82;21152;-69
2021/04/04 04:03:03;;;;;;;16.62;11.75;;;;;;;1.39;100.00;100112.40;1708244;81;21631;-68
2021/04/04 04:05:31;;;;;;;52.62;31.93;;;;;;;1.48;100.00;100112.13;1741915;81;21104;-67
2021/04/04 04:08:01;;;;;;;26.60;18.37;;;;;;;1.56;100.00;100109.73;1691031;83;21235;-67
2021/04/04 04:10:29;;;;;;;66.62;42.90;;;;;;;1.65;100.00;100111.98;1687948;83;21082;-71
2021/04/04 04:12:59;;;;;;;179.03;101.70;;;;;;;1.70;100.00;100114.52;1723735;81;21236;-68
2021/04/04 04:15:28;;;;;;;86.82;50.43;;;;;;;1.75;100.00;100116.70;1758551;79;21187;-68
2021/04/04 04:17:58;;;;;;;141.32;80.92;;;;;;;1.81;100.00;100112.30;1713401;82;21128;-68
2021/04/04 04:20:27;;;;;;;102.25;58.23;;;;;;;1.86;100.00;100110.18;1713348;82;22751;-71
2021/04/04 04:22:59;;;;;;;45.90;26.93;;;;;;;1.91;100.00;100116.20;1669320;84;21276;-68
2021/04/04 04:25:27;;;;;;;46.53;29.10;;;;;;;1.97;100.00;100111.00;1748465;80;21381;-68
2021/04/04 04:27:56;;;;;;;29.48;20.25;;;;;;;2.03;100.00;100109.20;1747300;80;21157;-67
2021/04/04 04:30:25;;;;;;;33.85;21.52;;;;;;;2.10;100.00;100111.59;1746567;80;21121;-67
2021/04/04 04:32:56;;;;;;;47.67;32.98;;;;;;;2.18;100.00;100118.17;1746999;80;21282;-67
2021/04/04 04:35:24;;;;;;;27.65;20.00;;;;;;;2.27;100.00;100119.13;1746661;80;24523;-67
2021/04/04 04:37:55;;;;;;;41.63;29.70;;;;;;;2.36;100.00;100118.34;1746970;80;21155;-67
2021/04/04 04:40:23;;;;;;;39.83;27.40;;;;;;;2.45;100.00;100118.81;1747781;80;20990;-67
2021/04/04 04:42:53;;;;;;;36.98;25.40;;;;;;;2.54;100.00;100125.75;1714419;82;21197;-67
2021/04/04 04:45:29;;;;;;;25.62;18.92;;;;;;;2.61;100.00;100126.00;1694930;83;20957;-66
2021/04/04 04:47:58;;;;;;;24.75;18.37;;;;;;;2.68;100.00;100128.37;1694622;83;22444;-72
2021/04/04 04:50:26;;;;;;;23.90;17.75;;;;;;;2.77;100.00;100131.92;1693679;83;21114;-67
2021/04/04 04:52:59;;;;;;;23.50;17.85;;;;;;;2.84;100.00;100135.55;1749508;80;21187;-66
2021/04/04 04:55:28;;;;;;;24.60;19.32;;;;;;;2.90;100.00;100135.02;1727255;80;21177;-67
2021/04/04 04:57:56;;;;;;;26.57;20.97;;;;;;;2.96;100.00;100140.92;1748576;80;21195;-70
2021/04/04 05:00:24;;;;;;;52.55;34.35;;;;;;;3.02;100.00;100147.27;1748951;80;20969;-66
2021/04/04 05:02:53;;;;;;;60.83;43.20;;;;;;;3.05;100.00;100144.43;1740377;80;21034;-66
2021/04/04 05:05:22;;;;;;;28.85;20.30;;;;;;;3.09;100.00;100145.30;1735238;80;21121;-69
2021/04/04 05:07:50;;;;;;;23.35;17.67;;;;;;;3.15;100.00;100146.05;1734522;80;21114;-65
2021/04/04 05:10:19;;;;;;;21.60;16.73;;;;;;;3.22;100.00;100148.05;1667928;80;21225;-66
2021/04/04 05:12:57;;;;;;;18.60;15.03;;;;;;;3.27;100.00;100147.99;1720265;81;21041;-66
2021/04/04 05:15:26;;;;;;;20.37;14.95;;;;;;;3.30;100.00;100153.36;1719476;80;21176;-65
2021/04/04 05:17:54;;;;;;;19.07;14.25;;;;;;;3.34;100.00;100154.70;1718624;82;21096;-67
2021/04/04 05:20:23;;;;;;;21.50;14.10;;;;;;;3.37;100.00;100151.83;1717339;80;21167;-67
2021/04/04 05:22:51;;;;;;;20.35;15.10;;;;;;;3.40;100.00;100150.27;1709813;80;21268;-66
2021/04/04 05:25:19;;;;;;;19.77;14.85;;;;;;;3.40;100.00;100148.49;1716368;81;21148;-67
2021/04/04 05:27:47;;;;;;;21.35;15.72;;;;;;;3.38;100.00;100144.45;1718658;81;21165;-68
2021/04/04 05:30:18;;;;;;;25.37;16.48;;;;;;;3.37;100.00;100142.36;1756854;80;21681;-65
2021/04/04 05:32:48;;;;;;;24.95;17.65;;;;;;;3.41;100.00;100145.47;1740520;80;21160;-64
2021/04/04 05:35:19;;;;;;;23.92;17.65;;;;;;;3.46;100.00;100145.05;1686143;82;21160;-65
2021/04/04 05:37:51;;;;;;;20.40;15.38;;;;;;;3.51;100.00;100148.81;1751832;80;21010;-65
2021/04/04 05:40:26;;;;;;;20.02;16.12;;;;;;;3.58;100.00;100147.78;1751967;80;21153;-66
2021/04/04 05:43:01;;;;;;;23.45;17.27;;;;;;;3.62;100.00;100148.64;1756142;80;21056;-66
2021/04/04 05:45:50;;;;;;;24.40;18.00;;;;;;;3.69;100.00;100154.53;1756916;80;21238;-66
2021/04/04 05:48:59;;;;;;;23.05;16.93;;;;;;;3.75;100.00;100146.22;1761487;80;22205;-66
2021/04/04 05:51:41;;;;;;;24.55;18.20;;;;;;;3.84;100.00;100149.25;1716292;82;21686;-65
2021/04/04 05:54:38;;;;;;;21.95;16.62;;;;;;;3.92;100.00;100149.84;1735188;80;21149;-67
2021/04/04 05:57:13;;;;;;;24.40;16.25;;;;;;;3.94;100.00;100150.04;1729667;81;21580;-67
2021/04/04 05:59:46;;;;;;;22.98;17.27;;;;;;;3.99;100.00;100146.55;1710493;82;21094;-66
2021/04/04 06:03:01;;;;;;;21.77;16.87;;;;;;;4.06;100.00;100156.63;1736635;80;21233;-66
2021/04/04 06:06:19;;;;;;;20.52;15.20;;;;;;;4.11;100.00;100151.84;1733947;80;21216;-68
2021/04/04 06:09:35;;;;;;;21.97;15.50;;;;;;;4.25;100.00;100157.48;1742987;80;21158;-65
2021/04/04 06:12:56;;;;;;;18.40;14.35;;;;;;;4.39;100.00;100156.97;1744602;80;20990;-66
2021/04/04 06:15:57;;;;;;;20.55;15.65;;;;;;;4.53;100.00;100164.70;1754024;80;21575;-66
2021/04/04 06:18:58;;;;;;;21.70;16.37;;;;;;;4.67;100.00;100162.11;1711853;82;22345;-67
2021/04/04 06:21:44;;;;;;;23.35;16.95;;;;;;;4.77;100.00;100159.79;1712471;82;21172;-67
2021/04/04 06:24:36;;;;;;;21.48;16.17;;;;;;;4.87;100.00;100164.86;1754203;80;21618;-67
2021/04/04 06:27:16;;;;;;;20.32;16.30;;;;;;;4.93;100.00;100164.28;1748080;80;21139;-66
2021/04/04 06:30:46;;;;;;;22.55;16.60;;;;;;;5.01;100.00;100168.70;1708693;82;21165;-68
2021/04/04 06:33:09;;;;;;;24.87;18.17;;;;;;;5.07;100.00;100175.36;1707191;82;22281;-72
2021/04/04 06:35:54;;;;;;;30.15;21.30;;;;;;;5.12;100.00;100177.03;1726120;81;21173;-66
2021/04/04 06:39:13;;;;;;;43.92;27.17;;;;;;;5.19;100.00;100186.30;1725669;80;21156;-74
2021/04/04 06:42:04;;;;;;;26.70;18.57;;;;;;;5.27;100.00;100192.00;1711420;82;21125;-74
2021/04/04 06:44:55;;;;;;;23.10;17.42;;;;;;;5.33;100.00;100193.97;1706067;82;21230;-69
2021/04/04 06:47:41;;;;;;;35.70;23.87;;;;;;;5.39;100.00;100193.37;1705255;83;21240;-67
2021/04/04 06:50:23;;;;;;;34.88;25.48;;;;;;;5.41;100.00;100196.61;1752699;80;21511;-71
2021/04/04 06:53:21;;;;;;;34.07;24.87;;;;;;;5.42;100.00;100206.46;1700184;83;21575;-67
2021/04/04 06:56:15;;;;;;;50.52;33.92;;;;;;;5.44;100.00;100201.48;1750379;80;21195;-67
2021/04/04 06:59:31;;;;;;;25.23;18.82;;;;;;;5.48;100.00;100200.22;1721538;81;21140;-67
2021/04/04 07:02:07;;;;;;;22.73;17.57;;;;;;;5.52;100.00;100198.95;1708556;82;21320;-68
2021/04/04 07:04:56;;;;;;;26.15;18.37;;;;;;;5.60;100.00;100195.61;1748970;80;21232;-68
2021/04/04 07:07:37;;;;;;;23.77;17.35;;;;;;;5.67;100.00;100198.40;1751916;80;21215;-67
2021/04/04 07:10:51;;;;;;;24.10;17.15;;;;;;;5.75;100.00;100202.33;1754054;80;21140;-68
2021/04/04 07:13:34;;;;;;;26.40;18.10;;;;;;;5.82;100.00;100203.34;1706575;82;21547;-69
2021/04/04 07:16:34;;;;;;;19.40;15.75;;;;;;;5.94;100.00;100206.50;1670691;84;21190;-68
2021/04/04 07:19:31;;;;;;;20.43;15.65;;;;;;;6.04;100.00;100205.91;1753873;79;21235;-68
2021/04/04 07:22:57;;;;;;;20.37;16.17;;;;;;;6.15;100.00;100206.13;1753180;79;21065;-73
2021/04/04 07:25:53;;;;;;;25.00;17.35;;;;;;;6.28;100.00;100202.61;1755480;79;21136;-70
2021/04/04 07:29:06;;;;;;;20.80;16.00;;;;;;;6.47;100.00;100209.30;1730806;80;21251;-69
2021/04/04 07:31:43;;;;;;;20.85;15.00;;;;;;;6.64;100.00;100206.29;1759945;79;21448;-68
2021/04/04 07:34:23;;;;;;;21.12;16.45;;;;;;;6.78;100.00;100210.83;1757528;79;21072;-67
2021/04/04 07:37:05;;;;;;;19.90;14.95;;;;;;;6.88;100.00;100206.81;1753995;79;21208;-67
2021/04/04 07:39:44;;;;;;;;;;;;;;;6.97;100.00;100207.13;1743645;81;21670;-67
2021/04/04 07:42:25;;;;;;;21.45;15.88;;;;;;;7.07;100.00;100209.90;1739878;81;20232;-67
2021/04/04 07:45:19;;;;;;;17.50;14.47;;;;;;;7.20;100.00;100209.92;1723760;81;21344;-67
2021/04/04 07:47:56;;;;;;;38.73;26.07;;;;;;;7.30;100.00;100212.66;1754655;80;21234;-70
2021/04/04 07:50:34;;;;;;;20.85;16.95;;;;;;;7.43;100.00;100221.25;1736179;80;21556;-68
2021/04/04 07:53:49;;;;;;;20.80;15.68;;;;;;;7.52;100.00;100231.94;1752412;80;21142;-68
2021/04/04 07:56:34;;;;;;;19.70;14.67;;;;;;;7.55;100.00;100230.31;1727400;81;21125;-70
2021/04/04 07:59:40;;;;;;;21.43;15.47;;;;;;;7.64;100.00;100231.11;1724558;80;21865;-73
2021/04/04 08:02:35;;;;;;;21.70;15.77;;;;;;;7.69;100.00;100221.52;1725263;81;21304;-67
2021/04/04 08:05:11;;;;;;;21.47;16.13;;;;;;;7.70;100.00;100222.67;1693842;82;21732;-69
2021/04/04 08:07:56;;;;;;;23.65;18.77;;;;;;;7.73;100.00;100227.55;1693788;82;21238;-68
2021/04/04 08:10:42;;;;;;;23.70;17.83;;;;;;;7.75;100.00;100222.98;1714297;81;21276;-69
2021/04/04 08:13:37;;;;;;;21.05;17.27;;;;;;;7.80;100.00;100209.50;1752659;81;22298;-68
2021/04/04 08:16:31;;;;;;;22.07;17.40;;;;;;;7.81;100.00;100204.66;1691536;83;21152;-69
2021/04/04 08:18:59;;;;;;;23.27;17.10;;;;;;;7.82;100.00;100204.16;1690480;83;21436;-69
2021/04/04 08:22:01;;;;;;;22.13;17.70;;;;;;;7.83;100.00;100201.39;1723476;81;21906;-68
2021/04/04 08:24:45;;;;;;;22.63;17.43;;;;;;;7.87;100.00;100203.98;1733397;81;21733;-70
2021/04/04 08:27:44;;;;;;;22.23;18.07;;;;;;;7.87;100.00;100201.38;1722749;81;21442;-68
2021/04/04 08:30:20;;;;;;;31.00;22.83;;;;;;;7.86;100.00;100197.17;1721928;81;21784;-70
2021/04/04 08:32:53;;;;;;;33.13;24.97;;;;;;;7.79;100.00;100191.83;1721449;81;21281;-71
2021/04/04 08:35:26;;;;;;;41.23;34.10;;;;;;;7.68;100.00;100195.27;1728633;81;21185;-70
2021/04/04 08:38:27;;;;;;;40.43;33.43;;;;;;;7.49;100.00;100195.14;1726213;81;21793;-69
2021/04/04 08:40:59;;;;;;;37.15;33.25;;;;;;;7.24;100.00;100202.14;1719710;81;21335;-71
2021/04/04 08:43:28;;;;;;;20.05;16.35;;;;;;;6.93;100.00;100207.97;1720477;81;21220;-70
2021/04/04 08:46:23;;;;;;;66.57;39.73;;;;;;;6.70;100.00;100203.85;1719036;81;21144;-71
2021/04/04 08:48:53;;;;;;;29.82;16.65;;;;;;;6.46;100.00;100200.73;1718731;82;21231;-69
2021/04/04 08:51:29;;;;;;;23.62;13.93;;;;;;;6.24;100.00;100203.89;1719661;81;21227;-70
2021/04/04 08:53:58;;;;;;;11.73;8.08;;;;;;;6.07;100.00;100198.66;1723824;81;21211;-69
2021/04/04 08:56:29;;;;;;;52.73;35.68;;;;;;;5.95;100.00;100195.21;1713731;81;21231;-69
2021/04/04 08:58:58;;;;;;;27.93;21.27;;;;;;;5.90;100.00;100203.37;1714663;81;21903;-69
2021/04/04 09:01:39;;;;;;;18.45;14.95;;;;;;;5.88;100.00;100204.03;1690861;81;21584;-72
2021/04/04 09:04:11;;;;;;;16.23;13.50;;;;;;;5.92;100.00;100202.78;1706466;81;21569;-71
2021/04/04 09:06:42;;;;;;;11.57;9.15;;;;;;;6.00;100.00;100201.53;1726090;80;21494;-71
2021/04/04 09:09:23;;;;;;;10.95;8.50;;;;;;;6.06;100.00;100194.45;1699724;83;21095;-73
2021/04/04 09:11:53;;;;;;;9.55;7.45;;;;;;;6.14;100.00;100195.42;1709684;81;22526;-69
2021/04/04 09:14:23;;;;;;;11.15;8.00;;;;;;;6.15;100.00;100197.07;1717149;81;21614;-74
2021/04/04 09:16:57;;;;;;;;;;;;;;;6.16;100.00;100190.92;1720635;81;21030;-72
2021/04/04 09:19:30;;;;;;;8.98;6.90;;;;;;;6.18;100.00;100196.27;1715311;81;22183;-73
2021/04/04 09:22:02;;;;;;;11.28;6.10;;;;;;;6.11;100.00;100199.64;1713109;81;21096;-72
2021/04/04 09:24:40;;;;;;;9.00;6.65;;;;;;;5.97;100.00;100200.53;1705468;82;21145;-74
2021/04/04 09:27:16;;;;;;;9.15;6.70;;;;;;;5.86;100.00;100196.41;1703547;82;21248;-74
2021/04/04 09:29:46;;;;;;;8.40;6.67;;;;;;;5.80;100.00;100195.74;1701489;81;21607;-70
2021/04/04 09:32:18;;;;;;;6.80;5.67;;;;;;;5.75;100.00;100197.15;1716462;81;21151;-72
2021/04/04 09:34:46;;;;;;;10.93;7.62;;;;;;;5.74;100.00;100197.64;1748174;80;21734;-72
2021/04/04 09:37:22;;;;;;;8.50;5.97;;;;;;;5.72;100.00;100196.16;1720628;81;21018;-72
2021/04/04 09:39:51;;;;;;;7.95;4.97;;;;;;;5.74;100.00;100193.76;1690949;83;22227;-72
2021/04/04 09:42:19;;;;;;;10.28;6.62;;;;;;;5.78;100.00;100183.92;1725363;81;21131;-75
2021/04/04 09:44:47;;;;;;;8.30;5.40;;;;;;;5.84;100.00;100188.48;1726087;81;21188;-74
2021/04/04 09:47:17;;;;;;;8.03;6.05;;;;;;;5.93;100.00;100185.48;1728302;81;21128;-70
2021/04/04 09:49:50;;;;;;;8.30;5.75;;;;;;;5.95;100.00;100190.84;1729317;80;21151;-71
2021/04/04 09:52:27;;;;;;;6.45;4.75;;;;;;;6.00;100.00;100183.41;1726401;81;21075;-73
2021/04/04 09:55:01;;;;;;;5.90;4.37;;;;;;;6.08;100.00;100182.16;1730463;81;21146;-71
2021/04/04 09:57:40;;;;;;;6.40;4.53;;;;;;;6.18;100.00;100182.53;1726212;81;22335;-72
2021/04/04 10:00:26;;;;;;;7.95;5.22;;;;;;;6.24;100.00;100175.41;1720814;81;21143;-70
2021/04/04 10:02:56;;;;;;;9.35;6.15;;;;;;;6.27;100.00;100178.98;1720415;80;21227;-72
2021/04/04 10:05:33;;;;;;;8.65;6.08;;;;;;;6.27;100.00;100173.33;1721468;80;21578;-72
2021/04/04 10:08:16;;;;;;;8.95;6.78;;;;;;;6.28;100.00;100178.82;1721254;80;21191;-72
2021/04/04 10:10:48;;;;;;;7.80;5.28;;;;;;;6.28;100.00;100175.42;1724951;80;21373;-74
2021/04/04 10:13:17;;;;;;;8.45;5.55;;;;;;;6.32;100.00;100172.36;1719258;81;21197;-74
2021/04/04 10:15:49;;;;;;;7.47;5.15;;;;;;;6.37;100.00;100171.91;1717031;81;21526;-73
2021/04/04 10:18:21;;;;;;;8.08;5.85;;;;;;;6.43;100.00;100167.86;1713940;82;21199;-81
2021/04/04 10:20:55;;;;;;;6.12;4.17;;;;;;;6.49;100.00;100167.24;1720042;81;21148;-81
2021/04/04 10:23:32;;;;;;;6.00;3.67;;;;;;;6.55;100.00;100161.41;1723446;81;21197;-71
2021/04/04 10:26:07;;;;;;;4.97;3.10;;;;;;;6.62;100.00;100159.81;1724169;81;21021;-73
2021/04/04 10:29:04;;;;;;;4.03;2.30;;;;;;;6.72;100.00;100159.67;1720486;81;21020;-75
2021/04/04 10:31:46;;;;;;;4.72;1.98;;;;;;;6.80;100.00;100150.61;1725162;81;21163;-72
2021/04/04 10:34:16;;;;;;;4.05;2.22;;;;;;;7.00;100.00;100153.69;1718802;81;21136;-69
2021/04/04 10:37:01;;;;;;;4.03;2.50;;;;;;;7.18;100.00;100152.23;1720637;81;22158;-71
2021/04/04 10:39:29;;;;;;;4.35;2.55;;;;;;;7.25;100.00;100146.72;1725127;81;21018;-71
2021/04/04 10:41:57;;;;;;;4.80;2.53;;;;;;;7.38;100.00;100140.53;1719310;81;21143;-71
2021/04/04 10:44:25;;;;;;;5.33;3.13;;;;;;;7.54;100.00;100131.44;1700809;83;21305;-75
2021/04/04 10:46:53;;;;;;;4.73;3.20;;;;;;;7.73;100.00;100127.65;1716419;81;21424;-72
2021/04/04 10:49:22;;;;;;;6.50;4.60;;;;;;;7.85;100.00;100119.01;1714248;81;22137;-73
2021/04/04 10:51:50;;;;;;;6.30;4.00;;;;;;;7.97;100.00;100120.25;1717011;81;21332;-74
2021/04/04 10:54:19;;;;;;;4.93;3.27;;;;;;;8.15;100.00;100120.50;1646215;85;21369;-70
2021/04/04 10:56:49;;;;;;;6.63;4.03;;;;;;;8.35;100.00;100118.27;1690594;82;21290;-73
2021/04/04 10:59:18;;;;;;;6.07;3.30;;;;;;;8.47;100.00;100110.42;1684899;83;21752;-74
2021/04/04 11:01:46;;;;;;;5.67;3.60;;;;;;;8.60;100.00;100103.34;1683847;83;21715;-75
2021/04/04 11:04:15;;;;;;;5.80;3.30;;;;;;;8.66;100.00;100104.76;1687234;83;21446;-71
2021/04/04 11:06:43;;;;;;;6.67;5.20;;;;;;;8.58;100.00;100098.33;1687254;83;21748;-77
2021/04/04 11:09:13;;;;;;;5.50;3.87;;;;;;;8.43;100.00;100095.67;1657843;83;21253;-78
2021/04/04 11:11:43;;;;;;;5.40;3.37;;;;;;;8.43;100.00;100107.36;1679511;83;21401;-78
2021/04/04 11:14:11;;;;;;;5.80;4.03;;;;;;;8.53;100.00;100100.16;1689185;83;21462;-68
2021/04/04 11:16:40;;;;;;;5.73;3.70;;;;;;;8.65;100.00;100098.45;1715959;82;21545;-77
2021/04/04 11:19:09;;;;;;;4.83;3.57;;;;;;;8.76;100.00;100098.04;1718777;82;21370;-79
2021/04/04 11:21:42;;;;;;;6.00;3.97;;;;;;;8.88;100.00;100087.53;1715785;82;21217;-79
2021/04/04 11:24:15;;;;;;;6.77;4.50;;;;;;;9.01;100.00;100083.83;1719982;82;21361;-71
2021/04/04 11:27:02;;;;;;;6.77;5.13;;;;;;;9.18;100.00;100076.69;1713362;82;22144;-77
2021/04/04 11:29:30;;;;;;;7.53;5.23;;;;;;;9.37;100.00;100069.34;1717386;82;21418;-77
2021/04/04 11:32:17;;;;;;;9.13;7.03;;;;;;;9.58;100.00;100068.11;1684215;83;21413;-76
2021/04/04 11:35:00;;;;;;;10.47;9.33;;;;;;;9.82;100.00;100061.01;1716563;82;21370;-78
2021/04/04 11:37:34;;;;;;;10.97;7.50;;;;;;;9.82;100.00;100061.01;1719407;82;22053;-70
2021/04/04 11:40:25;;;;;;;7.40;5.63;;;;;;;9.91;100.00;100060.70;1720279;82;21753;-83
2021/04/04 11:43:30;;;;;;;8.95;6.17;;;;;;;9.97;100.00;100057.37;1683439;82;22310;-80
2021/04/04 11:46:00;;;;;;;6.63;4.40;;;;;;;10.04;100.00;100058.75;1703904;82;21164;-82
2021/04/04 11:48:34;;;;;;;10.87;7.70;;;;;;;10.16;100.00;100059.08;1711825;81;21776;-81
2021/04/04 11:51:15;;;;;;;15.00;9.30;;;;;;;10.27;100.00;100047.39;1685659;83;22105;-82
2021/04/04 11:53:45;;;;;;;8.07;5.87;;;;;;;10.37;100.00;100047.37;1674647;83;21902;-79
2021/04/04 11:56:40;;;;;;;13.07;9.13;;;;;;;10.41;100.00;100039.48;1684076;83;21889;-79
2021/04/04 11:59:11;;;;;;;12.27;8.27;;;;;;;10.45;100.00;100047.27;1677290;83;21614;-79
2021/04/04 12:01:39;;;;;;;8.03;5.47;;;;;;;10.43;100.00;100035.41;1690070;83;21742;-79
2021/04/04 12:04:33;;;;;;;6.80;5.33;;;;;;;10.43;100.00;100035.41;1695594;83;21669;-68
2021/04/04 12:07:08;;;;;;;8.83;6.43;;;;;;;10.43;100.00;100036.21;1702527;82;22301;-75
2021/04/04 12:09:37;;;;;;;9.03;8.07;;;;;;;10.44;100.00;100037.81;1706341;82;21827;-76
2021/04/04 12:12:06;;;;;;;12.07;8.33;;;;;;;10.50;100.00;100041.98;1705448;82;21876;-72
2021/04/04 12:14:54;;;;;;;8.43;7.47;;;;;;;10.57;100.00;100041.05;1687325;82;23100;-68
2021/04/04 12:17:30;;;;;;;9.43;6.77;;;;;;;10.66;100.00;100045.13;1743325;80;21842;-70
2021/04/04 12:20:00;;;;;;;7.83;6.80;;;;;;;10.72;100.00;100039.66;1739121;80;21609;-72
2021/04/04 12:22:41;;;;;;;8.67;6.53;;;;;;;10.77;100.00;100029.47;1732859;80;21699;-72
2021/04/04 12:25:31;;;;;;;9.70;7.58;;;;;;;10.85;100.00;100033.23;1733825;80;21721;-70
2021/04/04 12:28:02;;;;;;;7.00;6.03;;;;;;;10.94;100.00;100032.08;1713995;81;21085;-72
2021/04/04 12:30:42;;;;;;;7.30;6.17;;;;;;;10.99;100.00;100033.33;1750152;80;22425;-72
2021/04/04 12:33:17;;;;;;;5.43;4.20;;;;;;;10.91;100.00;100029.88;1749631;80;21246;-73
2021/04/04 12:35:48;;;;;;;7.00;4.07;;;;;;;10.84;100.00;100033.44;1722693;80;21828;-72
2021/04/04 12:38:29;;;;;;;4.77;3.53;;;;;;;10.81;100.00;100033.80;1744735;80;21718;-72
2021/04/04 12:40:59;;;;;;;6.63;4.23;;;;;;;10.78;100.00;100033.67;1690956;82;21907;-73
2021/04/04 12:43:27;;;;;;;5.53;3.90;;;;;;;10.75;100.00;100026.23;1686947;82;21781;-74
2021/04/04 12:45:56;;;;;;;5.90;4.47;;;;;;;10.71;100.00;100028.91;1732647;80;21912;-71
2021/04/04 12:48:26;;;;;;;7.17;5.73;;;;;;;10.73;100.00;100027.44;1693939;82;21676;-74
2021/04/04 12:51:00;;;;;;;12.13;10.17;;;;;;;10.81;100.00;100029.89;1731356;81;21876;-75
2021/04/04 12:53:31;;;;;;;8.13;6.80;;;;;;;10.79;100.00;100024.05;1722604;81;21842;-72
2021/04/04 12:56:01;;;;;;;5.70;4.53;;;;;;;10.74;100.00;100019.91;1715793;83;21901;-70
2021/04/04 12:58:36;;;;;;;12.28;10.18;;;;;;;10.51;100.00;100026.66;1708734;81;22349;-72
2021/04/04 13:01:06;;;;;;;6.87;5.77;;;;;;;10.51;100.00;100026.66;1713636;81;21124;-70
2021/04/04 13:03:38;;;;;;;14.73;11.60;;;;;;;10.34;100.00;100021.72;1708133;82;22305;-70
2021/04/04 13:06:06;;;;;;;;;;;;;;;10.26;100.00;100014.00;1692623;82;21933;-73
2021/04/04 13:08:35;;;;;;;14.40;11.60;;;;;;;10.09;100.00;100012.63;1737901;81;20279;-72
2021/04/04 13:11:07;;;;;;;11.47;9.43;;;;;;;10.09;100.00;100016.03;1669712;83;21585;-70
2021/04/04 13:13:39;;;;;;;6.40;5.20;;;;;;;10.09;100.00;100016.03;1720979;81;21882;-69
2021/04/04 13:16:11;;;;;;;7.37;6.47;;;;;;;10.05;100.00;100015.28;1712501;82;21723;-67
2021/04/04 13:18:46;;;;;;;5.90;4.30;;;;;;;9.95;100.00;100024.19;1691384;82;21176;-70
2021/04/04 13:21:28;;;;;;;4.80;3.47;;;;;;;9.81;100.00;100017.72;1713409;81;21538;-70
2021/04/04 13:24:03;;;;;;;4.93;3.70;;;;;;;9.67;100.00;100018.09;1692861;83;21708;-72
2021/04/04 13:26:33;;;;;;;5.67;3.97;;;;;;;9.53;100.00;100018.91;1750915;80;21598;-71
2021/04/04 13:29:04;;;;;;;8.30;7.43;;;;;;;9.42;100.00;100017.08;1755807;80;21438;-68
2021/04/04 13:31:33;;;;;;;5.55;4.65;;;;;;;9.32;100.00;100023.53;1783948;79;21527;-71
2021/04/04 13:34:20;;;;;;;4.73;4.00;;;;;;;9.20;100.00;100023.19;1772046;80;21463;-70
2021/04/04 13:36:56;;;;;;;7.40;5.10;;;;;;;9.03;100.00;100021.77;1772551;79;21524;-70
2021/04/04 13:39:38;;;;;;;10.53;7.77;;;;;;;8.81;100.00;100024.73;1776341;79;21452;-71
2021/04/04 13:42:10;;;;;;;10.37;8.53;;;;;;;8.55;100.00;100032.42;1760775;79;21298;-72
2021/04/04 13:44:42;;;;;;;9.33;6.83;;;;;;;8.19;100.00;100023.11;1762951;80;21733;-71
2021/04/04 13:47:21;;;;;;;9.00;6.03;;;;;;;7.91;100.00;100030.07;1727494;81;21327;-70
2021/04/04 13:49:50;;;;;;;9.90;7.30;;;;;;;7.70;100.00;100026.80;1716039;81;21646;-71
2021/04/04 13:52:24;;;;;;;9.67;7.70;;;;;;;7.44;100.00;100034.84;1728917;79;21487;-69
2021/04/04 13:54:54;;;;;;;14.87;11.30;;;;;;;7.24;100.00;100034.44;1744161;79;21473;-71
2021/04/04 13:57:37;;;;;;;11.35;8.98;;;;;;;7.11;100.00;100027.66;1743972;79;21424;-71
2021/04/04 14:00:09;;;;;;;13.23;10.83;;;;;;;7.01;100.00;100031.73;1714359;81;21928;-70
2021/04/04 14:02:38;;;;;;;10.78;8.45;;;;;;;6.88;100.00;100030.13;1750880;79;21462;-71
2021/04/04 14:05:27;;;;;;;13.00;8.77;;;;;;;6.78;100.00;100031.61;1750973;79;21626;-72
2021/04/04 14:08:05;;;;;;;11.83;8.00;;;;;;;6.77;100.00;100030.47;1741107;79;21389;-71
2021/04/04 14:10:34;;;;;;;11.17;8.30;;;;;;;6.78;100.00;100034.67;1739248;79;21644;-70
2021/04/04 14:13:02;;;;;;;11.40;8.55;;;;;;;6.80;100.00;100035.33;1722037;79;21359;-71
2021/04/04 14:15:31;;;;;;;12.45;9.90;;;;;;;6.85;100.00;100034.34;1748572;79;21191;-71
2021/04/04 14:18:00;;;;;;;11.05;8.73;;;;;;;6.93;100.00;100029.17;1746766;79;21025;-72
2021/04/04 14:20:28;;;;;;;12.20;9.17;;;;;;;6.94;100.00;100030.78;1745149;79;21143;-72
2021/04/04 14:22:56;;;;;;;14.47;11.75;;;;;;;6.90;100.00;100031.28;1746241;79;22151;-73
2021/04/04 14:25:24;;;;;;;13.68;8.88;;;;;;;6.87;100.00;100035.00;1745706;80;21646;-73
2021/04/04 14:27:52;;;;;;;13.48;9.40;;;;;;;6.90;100.00;100033.37;1750232;80;21338;-73
2021/04/04 14:30:21;;;;;;;16.93;14.13;;;;;;;6.99;100.00;100036.27;1735220;81;21003;-73
2021/04/04 14:32:49;;;;;;;12.37;9.30;;;;;;;7.12;100.00;100037.52;1736235;81;21992;-73
2021/04/04 14:35:18;;;;;;;11.70;8.73;;;;;;;7.21;100.00;100032.17;1743669;81;21943;-72
2021/04/04 14:37:47;;;;;;;12.33;7.77;;;;;;;7.23;100.00;100035.88;1738421;81;21417;-73
2021/04/04 14:40:16;;;;;;;14.27;11.33;;;;;;;7.23;100.00;100035.88;1736443;81;21413;-73
2021/04/04 14:42:44;;;;;;;11.85;8.68;;;;;;;7.27;100.00;100032.81;1722333;81;21916;-73
2021/04/04 14:45:16;;;;;;;9.77;8.77;;;;;;;7.30;100.00;100036.83;1703748;82;21672;-73
2021/04/04 14:47:44;;;;;;;12.35;8.80;;;;;;;7.24;100.00;100034.92;1770164;79;21185;-73
2021/04/04 14:50:13;;;;;;;189.07;159.13;;;;;;;7.17;100.00;100028.30;1736178;81;21196;-70
2021/04/04 14:53:09;;;;;;;28.65;23.70;;;;;;;7.14;100.00;100032.51;1731279;81;21378;-73
2021/04/04 14:55:19;;;;;;;29.92;23.40;;;;;;;7.15;100.00;100027.64;1730149;80;21172;-72
2021/04/04 14:57:49;;;;;;;88.97;73.87;;;;;;;7.17;100.00;100028.78;1749466;80;20939;-72
2021/04/04 15:00:19;;;;;;;22.73;16.65;;;;;;;7.29;100.00;100033.93;1773321;79;21203;-73